Terminal Aerodrome Forecast
Issued by NWS

Home | Current Version | Previous Version | Text Only | Print | Product List | Glossary On
Versions: 1 2 3 4 5 6 7 8 9 10 11 12 13 14 15 16 17 18 19 20 21 22 23 24 25 26 27 28
429
FTUS41 KBUF 130259 AAB
TAFJHW
TAF AMD
KJHW 130259Z 1303/1324 31014G24KT 2SM -SN OVC015
      TEMPO 1304/1308 1SM -SN BKN008
     FM131300 32019G27KT 4SM -SHSN BLSN OVC015
      AMD LTD TO CLD VIS AND WIND=

USA.gov is the U.S. government's official web portal to all federal, state and local government web resources and services.